Time;durP1;ratioP1;P1;durP2;ratioP2;P2;SDS_P1;SDS_P2;PMS_P1;PMS_P2;Temp;Humidity;BMP_temperature;BMP_pressure;BME280_temperature;BME280_humidity;BME280_pressure;Samples;Min_cycle;Max_cycle;Signal;HPM_P1;HPM_P2
2021/11/23 02:03:59;;;;;;;5.01;2.72;;;;;;;-1.83;68.46;100245.44;373791;142;869828;-58
2021/11/23 02:05:01;;;;;;;5.79;2.89;;;;;;;-1.92;68.45;100247.54;364726;147;857329;-58
2021/11/23 02:06:03;;;;;;;5.29;2.79;;;;;;;-1.91;68.43;100247.63;363201;145;858123;-58
2021/11/23 02:07:04;;;;;;;5.42;2.68;;;;;;;-1.88;68.50;100251.97;365592;145;857231;-57
2021/11/23 02:08:07;;;;;;;5.55;2.57;;;;;;;-1.84;68.47;100248.77;362776;145;858995;-57
2021/11/23 02:09:08;;;;;;;5.69;2.56;;;;;;;-1.78;68.37;100241.45;361166;145;857165;-58
2021/11/23 02:10:11;;;;;;;6.67;3.23;;;;;;;-1.70;68.17;100251.97;362214;145;857243;-57
2021/11/23 02:11:13;;;;;;;7.55;2.91;;;;;;;-1.62;68.10;100252.31;361586;145;858360;-58
2021/11/23 02:12:14;;;;;;;9.87;3.73;;;;;;;-1.54;67.92;100240.86;361310;146;857634;-57
2021/11/23 02:13:16;;;;;;;5.25;3.07;;;;;;;-1.43;67.69;100254.03;362576;144;857451;-58
2021/11/23 02:14:19;;;;;;;6.20;3.26;;;;;;;-1.34;67.50;100241.75;357506;148;857721;-57
2021/11/23 02:15:21;;;;;;;5.49;3.11;;;;;;;-1.24;67.20;100244.70;354102;147;857259;-58
2021/11/23 02:16:23;;;;;;;7.55;3.51;;;;;;;-1.13;66.95;100250.27;363781;146;857790;-58
2021/11/23 02:17:25;;;;;;;7.86;3.25;;;;;;;-1.05;66.72;100249.83;363448;145;857355;-56
2021/11/23 02:18:28;;;;;;;5.18;2.98;;;;;;;-0.96;66.42;100249.34;364259;145;857484;-57
2021/11/23 02:19:30;;;;;;;8.88;3.94;;;;;;;-0.87;66.19;100251.42;361989;145;858746;-57
2021/11/23 02:20:32;;;;;;;7.45;3.55;;;;;;;-0.78;65.87;100249.28;363944;145;863969;-57
2021/11/23 02:21:35;;;;;;;4.60;3.05;;;;;;;-0.68;65.59;100258.16;354234;149;857604;-57
2021/11/23 02:22:36;;;;;;;5.85;3.07;;;;;;;-0.60;65.34;100255.95;353151;148;857860;-57
2021/11/23 02:23:38;;;;;;;7.85;3.61;;;;;;;-0.54;65.08;100256.20;362570;146;857461;-57
2021/11/23 02:24:40;;;;;;;6.89;3.13;;;;;;;-0.49;64.86;100252.17;363986;144;857665;-57
2021/11/23 02:25:42;;;;;;;7.33;3.38;;;;;;;-0.41;64.61;100254.17;366190;146;857343;-57
2021/11/23 02:26:44;;;;;;;6.06;3.45;;;;;;;-0.34;64.41;100254.50;363524;145;859722;-57
2021/11/23 02:27:47;;;;;;;7.01;3.43;;;;;;;-0.28;64.18;100255.56;365223;144;857349;-57
2021/11/23 02:28:49;;;;;;;10.50;4.10;;;;;;;-0.24;63.86;100257.42;365005;146;858068;-57
2021/11/23 02:29:51;;;;;;;5.77;3.51;;;;;;;-0.24;63.91;100255.73;366122;144;864959;-57
2021/11/23 02:30:54;;;;;;;10.25;3.93;;;;;;;-0.20;63.85;100249.96;362870;145;859668;-57
2021/11/23 02:31:56;;;;;;;9.02;4.24;;;;;;;-0.16;63.89;100243.33;362771;147;859285;-57
2021/11/23 02:32:58;;;;;;;12.71;4.15;;;;;;;-0.13;63.94;100246.00;363059;146;858675;-57
2021/11/23 02:34:00;;;;;;;10.49;4.57;;;;;;;-0.08;63.88;100243.63;363092;145;859397;-57
2021/11/23 02:35:03;;;;;;;8.35;4.33;;;;;;;-0.05;63.83;100251.38;363214;145;859071;-58
2021/11/23 02:36:07;;;;;;;6.86;3.83;;;;;;;-0.04;63.75;100250.57;363015;146;857693;-58
2021/11/23 02:37:09;;;;;;;7.20;4.15;;;;;;;-0.02;63.64;100251.50;362513;146;865903;-57
2021/11/23 02:38:11;;;;;;;8.61;4.15;;;;;;;0.02;63.59;100257.59;364465;144;857728;-57
2021/11/23 02:39:13;;;;;;;6.99;4.01;;;;;;;0.06;63.36;100251.82;363301;147;859022;-57
2021/11/23 02:40:16;;;;;;;7.04;4.35;;;;;;;0.06;63.18;100252.70;367655;146;859470;-57
2021/11/23 02:41:19;;;;;;;8.82;4.57;;;;;;;0.07;63.21;100251.90;362550;144;857633;-57
2021/11/23 02:42:21;;;;;;;5.45;3.51;;;;;;;0.09;63.10;100252.83;363376;145;857252;-57
2021/11/23 02:43:23;;;;;;;8.04;4.63;;;;;;;0.11;63.00;100248.66;363246;146;859285;-57
2021/11/23 02:44:25;;;;;;;8.91;4.65;;;;;;;0.11;62.98;100247.78;364479;145;857951;-59
2021/11/23 02:45:28;;;;;;;7.43;4.07;;;;;;;0.11;63.02;100253.76;363347;145;858886;-57
2021/11/23 02:46:29;;;;;;;9.11;4.30;;;;;;;0.11;62.94;100253.76;363692;146;858977;-56
2021/11/23 02:47:34;;;;;;;9.70;4.97;;;;;;;0.12;62.95;100252.06;363606;145;856611;-57
2021/11/23 02:48:37;;;;;;;10.04;4.48;;;;;;;0.11;62.90;100253.76;362216;144;857509;-57
2021/11/23 02:49:39;;;;;;;9.46;4.14;;;;;;;0.12;62.93;100259.70;363594;146;857199;-57
2021/11/23 02:50:45;;;;;;;10.43;4.96;;;;;;;0.11;62.89;100257.97;363486;145;858271;-57
2021/11/23 02:51:46;;;;;;;7.78;4.39;;;;;;;0.11;62.93;100257.97;363584;145;857175;-57
2021/11/23 02:52:48;;;;;;;8.53;4.19;;;;;;;0.12;62.86;100260.59;363713;145;864718;-57
2021/11/23 02:53:50;;;;;;;7.43;4.39;;;;;;;0.13;62.82;100257.23;365474;146;857850;-57
2021/11/23 02:54:54;;;;;;;9.07;4.09;;;;;;;0.12;62.76;100250.41;362748;146;864927;-56
2021/11/23 02:55:56;;;;;;;7.99;4.16;;;;;;;0.10;62.83;100257.11;363622;145;858172;-57
2021/11/23 02:56:58;;;;;;;11.67;4.62;;;;;;;0.08;62.81;100256.19;367747;146;865670;-57
2021/11/23 02:58:01;;;;;;;10.41;4.23;;;;;;;0.08;62.91;100258.73;364814;146;858217;-57
2021/11/23 02:59:03;;;;;;;8.43;4.52;;;;;;;;;;364766;144;859494;-57
2021/11/23 03:00:09;;;;;;;8.19;4.48;;;;;;;;;;354438;149;857253;-57
2021/11/23 03:01:11;;;;;;;10.17;4.08;;;;;;;;;;355518;148;859155;-57
2021/11/23 03:02:13;;;;;;;10.59;4.81;;;;;;;;;;362630;145;857860;-56
2021/11/23 03:03:14;;;;;;;8.36;4.06;;;;;;;;;;361578;146;860013;-57
2021/11/23 03:04:17;;;;;;;8.65;4.31;;;;;;;;;;356280;148;865291;-56
2021/11/23 04:03:59;;;;;;;7.69;3.49;;;;;;;-2.77;72.48;100253.55;374991;142;871775;-57
2021/11/23 04:05:01;;;;;;;6.55;3.86;;;;;;;-2.89;72.66;100252.12;366934;144;859013;-57
2021/11/23 04:06:03;;;;;;;5.53;3.23;;;;;;;;;;366721;144;859009;-57
2021/11/23 04:07:04;;;;;;;6.03;3.75;;;;;;;;;;366463;144;858067;-57
2021/11/23 04:08:06;;;;;;;7.17;3.49;;;;;;;;;;357042;148;866628;-57
2021/11/23 04:09:08;;;;;;;8.86;3.89;;;;;;;;;;355323;147;865814;-57
2021/11/23 04:10:10;;;;;;;6.40;4.07;;;;;;;;;;366513;144;864359;-56
2021/11/23 04:11:12;;;;;;;6.95;4.13;;;;;;;;;;368361;144;857194;-57
2021/11/23 04:12:13;;;;;;;6.20;3.76;;;;;;;;;;367350;144;858942;-57
2021/11/23 04:13:18;;;;;;;6.14;3.85;;;;;;;;;;366374;144;864876;-58
2021/11/23 04:14:19;;;;;;;7.72;3.69;;;;;;;;;;365985;144;865678;-59
2021/11/23 04:15:20;;;;;;;6.53;4.12;;;;;;;;;;367165;144;867596;-58
2021/11/23 04:16:23;;;;;;;8.32;4.57;;;;;;;;;;367293;144;857418;-58
2021/11/23 04:17:25;;;;;;;7.06;4.04;;;;;;;;;;368685;144;857584;-58
2021/11/23 04:18:27;;;;;;;6.49;4.38;;;;;;;;;;366506;144;857320;-56
2021/11/23 04:19:28;;;;;;;8.85;4.78;;;;;;;;;;364437;146;865093;-55
2021/11/23 04:20:30;;;;;;;8.14;4.59;;;;;;;;;;364170;147;864926;-57
2021/11/23 04:21:33;;;;;;;8.76;4.44;;;;;;;;;;361079;147;857744;-57
2021/11/23 04:22:35;;;;;;;9.76;4.94;;;;;;;;;;365057;146;857885;-57
2021/11/23 04:23:37;;;;;;;10.32;4.79;;;;;;;;;;363261;147;866860;-57
2021/11/23 04:24:38;;;;;;;11.00;4.64;;;;;;;;;;362789;147;863967;-57
2021/11/23 04:25:40;;;;;;;10.85;4.79;;;;;;;;;;363382;147;866647;-56
2021/11/23 04:26:41;;;;;;;9.44;4.62;;;;;;;;;;361570;146;864014;-56
2021/11/23 04:27:43;;;;;;;9.42;4.56;;;;;;;;;;363134;147;864896;-56
2021/11/23 04:28:45;;;;;;;6.62;4.24;;;;;;;;;;359888;147;866855;-58
2021/11/23 04:29:46;;;;;;;7.75;4.41;;;;;;;;;;364570;146;864885;-57
2021/11/23 04:30:48;;;;;;;9.24;4.55;;;;;;;;;;363886;147;859053;-55
2021/11/23 04:31:50;;;;;;;9.54;4.82;;;;;;;;;;364823;146;864995;-56
2021/11/23 04:32:51;;;;;;;12.25;5.18;;;;;;;;;;362869;147;866616;-56
2021/11/23 04:33:53;;;;;;;8.16;4.73;;;;;;;;;;362552;146;858381;-57
2021/11/23 04:34:55;;;;;;;9.19;5.23;;;;;;;;;;363558;147;857250;-57
2021/11/23 04:35:57;;;;;;;11.01;5.59;;;;;;;;;;364666;147;858991;-55
2021/11/23 04:36:59;;;;;;;9.64;5.15;;;;;;;;;;363222;146;859237;-54
2021/11/23 04:38:01;;;;;;;10.59;5.12;;;;;;;;;;364114;147;864887;-54
2021/11/23 04:39:03;;;;;;;11.37;5.80;;;;;;;;;;364411;145;859643;-54
2021/11/23 04:40:07;;;;;;;10.55;5.52;;;;;;;;;;365280;145;857362;-54
2021/11/23 04:41:09;;;;;;;10.81;5.37;;;;;;;;;;365047;145;865435;-55
2021/11/23 04:42:11;;;;;;;13.26;5.84;;;;;;;;;;361480;147;858124;-55
2021/11/23 04:43:12;;;;;;;9.63;5.12;;;;;;;;;;363465;146;866737;-55
2021/11/23 04:44:14;;;;;;;12.54;5.56;;;;;;;;;;364718;146;865035;-54
2021/11/23 04:45:16;;;;;;;9.81;5.34;;;;;;;;;;364437;147;866342;-54
2021/11/23 04:46:18;;;;;;;10.45;5.91;;;;;;;;;;363122;146;864925;-54
2021/11/23 04:47:19;;;;;;;7.46;4.96;;;;;;;;;;363390;146;858338;-57
2021/11/23 04:48:21;;;;;;;9.48;5.19;;;;;;;;;;358179;149;864968;-55
2021/11/23 04:49:24;;;;;;;9.69;5.36;;;;;;;;;;360937;147;866925;-55
2021/11/23 04:50:26;;;;;;;11.72;5.72;;;;;;;;;;363743;146;865330;-55
2021/11/23 04:51:28;;;;;;;11.61;5.79;;;;;;;;;;363203;146;857307;-55
2021/11/23 04:52:29;;;;;;;9.05;5.82;;;;;;;;;;363853;147;859107;-53
2021/11/23 04:53:31;;;;;;;11.87;5.72;;;;;;;;;;363964;146;864185;-53
2021/11/23 04:54:33;;;;;;;10.74;6.01;;;;;;;;;;362211;146;866207;-54
2021/11/23 04:55:34;;;;;;;13.25;6.46;;;;;;;;;;364440;146;866858;-54
2021/11/23 04:56:36;;;;;;;10.47;6.27;;;;;;;;;;363839;147;859533;-53
2021/11/23 04:57:38;;;;;;;10.16;5.98;;;;;;;;;;363807;146;864973;-54
2021/11/23 04:58:40;;;;;;;12.65;6.74;;;;;;;;;;362717;146;867159;-54
2021/11/23 04:59:42;;;;;;;12.25;6.27;;;;;;;;;;363423;147;858225;-54
2021/11/23 05:00:43;;;;;;;10.65;6.00;;;;;;;;;;363079;147;858239;-53
2021/11/23 05:01:45;;;;;;;10.19;6.02;;;;;;;;;;364552;146;865100;-54
2021/11/23 05:02:47;;;;;;;10.83;7.21;;;;;;;;;;363538;146;857271;-54
2021/11/23 05:03:48;;;;;;;16.41;8.41;;;;;;;;;;363595;146;858661;-54
2021/11/23 05:04:50;;;;;;;16.57;8.92;;;;;;;;;;363166;146;865027;-54
2021/11/23 05:05:52;;;;;;;14.94;8.84;;;;;;;;;;365142;146;859569;-54
2021/11/23 05:06:54;;;;;;;12.55;7.29;;;;;;;;;;363029;147;857732;-55
2021/11/23 05:07:56;;;;;;;16.85;8.15;;;;;;;;;;364630;146;859482;-54
2021/11/23 05:08:58;;;;;;;17.46;9.01;;;;;;;;;;364024;146;857335;-59
2021/11/23 05:09:59;;;;;;;20.23;8.95;;;;;;;;;;364379;146;857175;-54
2021/11/23 05:11:01;;;;;;;22.19;9.97;;;;;;;;;;363997;147;859142;-58
2021/11/23 05:12:03;;;;;;;24.16;10.25;;;;;;;;;;365021;146;864924;-59
2021/11/23 05:13:04;;;;;;;24.37;9.97;;;;;;;;;;363154;147;864944;-59
2021/11/23 05:14:06;;;;;;;21.69;9.82;;;;;;;;;;365044;147;858162;-58
2021/11/23 05:15:08;;;;;;;22.58;10.00;;;;;;;;;;364019;146;865590;-59
2021/11/23 05:16:10;;;;;;;18.51;9.24;;;;;;;;;;365369;146;864854;-61
2021/11/23 05:17:12;;;;;;;19.21;8.96;;;;;;;;;;362990;147;857324;-56
2021/11/23 05:18:13;;;;;;;17.76;8.25;;;;;;;;;;363788;147;865791;-56
2021/11/23 05:19:15;;;;;;;19.94;8.00;;;;;;;;;;364500;145;864964;-53
2021/11/23 05:20:18;;;;;;;17.87;8.21;;;;;;;;;;359561;147;867289;-58
2021/11/23 05:21:19;;;;;;;14.87;6.76;;;;;;;;;;361087;147;858899;-55
2021/11/23 05:22:21;;;;;;;12.52;7.01;;;;;;;;;;363853;146;865186;-56
2021/11/23 05:23:22;;;;;;;13.31;7.20;;;;;;;;;;364524;147;865220;-55
2021/11/23 05:24:24;;;;;;;15.20;7.44;;;;;;;;;;363440;148;865197;-54
2021/11/23 05:25:26;;;;;;;18.43;7.12;;;;;;;;;;363534;146;866882;-55
2021/11/23 05:26:27;;;;;;;12.72;6.48;;;;;;;;;;365513;146;865081;-54
2021/11/23 05:27:29;;;;;;;14.38;6.73;;;;;;;;;;363023;147;865677;-54
2021/11/23 05:28:31;;;;;;;14.06;6.72;;;;;;;;;;362934;146;857324;-55
2021/11/23 05:29:33;;;;;;;15.44;6.83;;;;;;;;;;364616;146;859562;-56
2021/11/23 05:30:35;;;;;;;13.45;7.33;;;;;;;;;;364049;147;864038;-56
2021/11/23 05:31:37;;;;;;;16.77;8.19;;;;;;;;;;362238;147;857871;-54
2021/11/23 05:32:39;;;;;;;13.41;7.05;;;;;;;;;;363108;146;857897;-51
2021/11/23 05:33:41;;;;;;;12.22;6.65;;;;;;;;;;361958;146;857292;-53
2021/11/23 05:34:43;;;;;;;12.85;6.78;;;;;;;;;;363426;147;859738;-57
2021/11/23 05:35:49;;;;;;;13.95;6.51;;;;;;;;;;363571;147;857282;-52
2021/11/23 05:36:48;;;;;;;10.17;5.84;;;;;;;;;;361872;146;865818;-55
2021/11/23 05:37:50;;;;;;;12.45;6.16;;;;;;;;;;363608;147;866888;-55
2021/11/23 05:38:51;;;;;;;11.17;5.88;;;;;;;;;;362253;147;866708;-54
2021/11/23 05:39:53;;;;;;;11.12;6.19;;;;;;;;;;362742;146;865082;-52
2021/11/23 05:40:55;;;;;;;12.06;6.85;;;;;;;;;;365279;146;866784;-57
2021/11/23 05:41:57;;;;;;;10.20;5.91;;;;;;;;;;364080;147;865041;-56
2021/11/23 05:42:58;;;;;;;11.29;6.13;;;;;;;;;;362310;146;857282;-56
2021/11/23 05:44:00;;;;;;;10.16;6.10;;;;;;;;;;365163;147;857861;-58
2021/11/23 05:45:02;;;;;;;10.91;5.70;;;;;;;;;;364069;146;866819;-57
2021/11/23 05:46:04;;;;;;;13.95;6.21;;;;;;;;;;363068;147;865143;-55
2021/11/23 05:47:06;;;;;;;11.06;5.97;;;;;;;;;;364007;146;859444;-57
2021/11/23 05:48:07;;;;;;;11.77;6.04;;;;;;;;;;362512;147;865013;-56
2021/11/23 05:49:09;;;;;;;13.04;6.25;;;;;;;;;;362536;147;864932;-55
2021/11/23 05:50:12;;;;;;;11.68;6.57;;;;;;;;;;363006;146;865930;-56
2021/11/23 05:51:13;;;;;;;13.62;6.45;;;;;;;;;;364444;147;865586;-56
2021/11/23 05:52:15;;;;;;;12.43;7.00;;;;;;;;;;364587;147;866053;-56
2021/11/23 05:53:16;;;;;;;12.01;6.11;;;;;;;;;;364485;147;864989;-56
2021/11/23 05:54:18;;;;;;;10.74;6.90;;;;;;;;;;362621;147;866766;-56
2021/11/23 05:55:20;;;;;;;10.77;6.46;;;;;;;;;;365051;147;865647;-55
2021/11/23 05:56:22;;;;;;;13.75;6.93;;;;;;;;;;364114;146;865057;-55
2021/11/23 05:57:23;;;;;;;14.74;6.50;;;;;;;;;;362737;146;857589;-54
2021/11/23 05:58:25;;;;;;;11.51;6.65;;;;;;;;;;363416;146;865135;-55
2021/11/23 05:59:27;;;;;;;16.49;7.27;;;;;;;;;;364427;147;859136;-54
2021/11/23 06:00:30;;;;;;;17.67;7.97;;;;;;;;;;362876;146;865167;-55
2021/11/23 06:01:31;;;;;;;17.58;8.07;;;;;;;;;;362843;147;858676;-55
2021/11/23 06:02:33;;;;;;;17.60;8.26;;;;;;;;;;363146;146;856188;-55
2021/11/23 06:03:35;;;;;;;16.77;7.91;;;;;;;;;;365174;146;865814;-55
2021/11/23 06:04:36;;;;;;;15.39;7.54;;;;;;;;;;358772;146;865074;-55
2021/11/23 06:05:38;;;;;;;16.81;8.25;;;;;;;;;;356488;149;857347;-56
2021/11/23 06:06:40;;;;;;;23.01;9.06;;;;;;;;;;357148;149;866323;-55
2021/11/23 06:07:41;;;;;;;17.20;8.60;;;;;;;;;;356648;149;864777;-55
2021/11/23 06:08:43;;;;;;;16.62;8.19;;;;;;;;;;358376;148;868107;-54
2021/11/23 06:09:46;;;;;;;15.28;8.01;;;;;;;;;;358458;149;864968;-55
2021/11/23 06:10:48;;;;;;;18.14;7.34;;;;;;;;;;358044;149;865856;-55
2021/11/23 06:11:50;;;;;;;19.53;7.44;;;;;;;;;;356177;148;864843;-55
2021/11/23 06:12:51;;;;;;;14.36;7.30;;;;;;;;;;358305;150;864938;-55
2021/11/23 06:13:53;;;;;;;14.72;7.29;;;;;;;;;;358547;149;864607;-54
2021/11/23 06:14:55;;;;;;;15.59;7.44;;;;;;;;;;358060;149;858253;-55
2021/11/23 06:15:56;;;;;;;13.48;7.39;;;;;;;;;;359716;147;865080;-55
2021/11/23 06:16:58;;;;;;;13.01;6.67;;;;;;;;;;359618;150;868280;-56
2021/11/23 06:18:02;;;;;;;14.19;6.90;;;;;;;;;;358100;149;865004;-55
2021/11/23 06:19:03;;;;;;;14.71;6.97;;;;;;;;;;357784;149;857227;-56
2021/11/23 06:20:06;;;;;;;12.05;6.15;;;;;;;;;;359455;150;857343;-55
2021/11/23 06:21:08;;;;;;;17.45;7.12;;;;;;;;;;359038;149;857307;-54
2021/11/23 06:22:12;;;;;;;10.90;6.33;;;;;;;;;;357791;149;857288;-54
2021/11/23 06:23:14;;;;;;;13.34;6.87;;;;;;;;;;358967;149;857658;-54
2021/11/23 06:24:16;;;;;;;15.93;7.41;;;;;;;;;;356866;149;857174;-54
2021/11/23 06:25:18;;;;;;;14.34;6.89;;;;;;;;;;359070;149;864922;-54
2021/11/23 06:26:19;;;;;;;15.56;7.68;;;;;;;;;;358355;149;864931;-55
2021/11/23 06:27:21;;;;;;;16.71;7.81;;;;;;;;;;353826;150;858685;-55
2021/11/23 06:28:23;;;;;;;15.72;7.66;;;;;;;;;;357664;149;865047;-54
2021/11/23 06:29:24;;;;;;;13.79;6.86;;;;;;;;;;357870;148;865945;-55
2021/11/23 06:30:29;;;;;;;14.89;7.54;;;;;;;;;;359722;149;858824;-55
2021/11/23 06:31:30;;;;;;;13.61;6.45;;;;;;;;;;356521;149;857245;-55
2021/11/23 06:32:31;;;;;;;13.69;6.56;;;;;;;;;;356623;149;857674;-54
2021/11/23 06:33:33;;;;;;;11.47;6.78;;;;;;;;;;358948;150;865000;-55
2021/11/23 06:34:34;;;;;;;17.51;7.04;;;;;;;;;;354819;149;866758;-55
2021/11/23 06:35:36;;;;;;;15.05;7.66;;;;;;;;;;358256;149;865562;-57
2021/11/23 06:36:38;;;;;;;13.63;6.44;;;;;;;;;;358913;148;864901;-57
2021/11/23 06:37:40;;;;;;;12.95;7.06;;;;;;;;;;356258;149;858061;-55
2021/11/23 06:38:41;;;;;;;12.79;6.89;;;;;;;;;;356876;149;864874;-57
2021/11/23 06:39:44;;;;;;;14.57;7.04;;;;;;;;;;356139;148;866701;-57
2021/11/23 06:40:45;;;;;;;16.17;7.60;;;;;;;;;;355417;150;865948;-57
2021/11/23 06:41:47;;;;;;;14.79;7.35;;;;;;;;;;357362;150;857621;-57
2021/11/23 06:42:49;;;;;;;14.19;6.92;;;;;;;;;;356707;149;857281;-58
2021/11/23 06:43:51;;;;;;;10.94;6.75;;;;;;;;;;359624;149;857357;-57
2021/11/23 06:44:53;;;;;;;16.53;7.44;;;;;;;;;;355241;149;865875;-58
2021/11/23 06:45:55;;;;;;;13.01;6.74;;;;;;;;;;357808;149;858125;-56
2021/11/23 06:46:57;;;;;;;11.79;6.37;;;;;;;;;;356172;148;865152;-58
2021/11/23 06:47:59;;;;;;;14.79;6.79;;;;;;;;;;358666;149;865633;-56
2021/11/23 06:49:00;;;;;;;14.55;6.73;;;;;;;;;;357573;149;865776;-57
2021/11/23 06:50:02;;;;;;;14.86;6.21;;;;;;;;;;357812;148;864997;-57
2021/11/23 06:51:04;;;;;;;12.01;6.71;;;;;;;;;;358976;149;866804;-58
2021/11/23 06:52:06;;;;;;;12.94;6.91;;;;;;;;;;346603;152;857676;-58
2021/11/23 06:53:08;;;;;;;14.28;6.90;;;;;;;;;;347454;152;865355;-58
2021/11/23 06:54:10;;;;;;;14.13;7.07;;;;;;;;;;348443;153;859067;-58
2021/11/23 06:55:12;;;;;;;14.98;6.36;;;;;;;;;;347072;154;857821;-57
2021/11/23 06:56:15;;;;;;;13.15;6.61;;;;;;;;;;350830;152;858598;-58
2021/11/23 06:57:17;;;;;;;12.60;6.17;;;;;;;;;;348443;151;857417;-59
2021/11/23 06:58:19;;;;;;;15.84;6.76;;;;;;;;;;350454;152;856076;-59
2021/11/23 06:59:21;;;;;;;13.73;6.29;;;;;;;;;;350198;152;863879;-58
2021/11/23 07:00:22;;;;;;;13.21;6.29;;;;;;;;;;342673;154;864134;-57
2021/11/23 07:01:24;;;;;;;11.17;6.05;;;;;;;;;;349645;151;863968;-56
2021/11/23 07:02:26;;;;;;;13.45;6.54;;;;;;;;;;349666;152;856758;-59
2021/11/23 07:03:27;;;;;;;13.24;6.46;;;;;;;;;;350400;152;863925;-59
2021/11/23 07:04:29;;;;;;;11.05;6.02;;;;;;;;;;351221;152;864626;-57
2021/11/23 07:05:31;;;;;;;13.17;6.66;;;;;;;;;;353978;149;864318;-58
2021/11/23 07:06:32;;;;;;;12.41;5.96;;;;;;;;;;363029;147;864019;-57
2021/11/23 07:07:34;;;;;;;9.24;5.72;;;;;;;;;;364616;146;863900;-59
2021/11/23 07:08:36;;;;;;;10.70;5.99;;;;;;;;;;363248;146;863817;-58
2021/11/23 07:09:37;;;;;;;10.32;6.07;;;;;;;;;;363561;147;863765;-57
2021/11/23 07:10:41;;;;;;;10.42;6.36;;;;;;;;;;364101;146;856585;-58
2021/11/23 07:11:43;;;;;;;9.80;5.72;;;;;;;;;;362822;146;863813;-57
2021/11/23 07:12:45;;;;;;;12.50;6.22;;;;;;;;;;352001;151;856163;-58
2021/11/23 07:13:47;;;;;;;11.87;6.22;;;;;;;;;;351589;147;856586;-58
2021/11/23 07:14:49;;;;;;;11.04;5.73;;;;;;;;;;364544;146;863730;-57
2021/11/23 07:15:52;;;;;;;10.73;5.57;;;;;;;;;;362437;146;863750;-58
2021/11/23 07:16:53;;;;;;;11.98;5.82;;;;;;;;;;364222;147;856110;-57
2021/11/23 07:17:55;;;;;;;11.61;6.24;;;;;;;;;;363310;147;864069;-59
2021/11/23 07:18:59;;;;;;;10.39;5.87;;;;;;;;;;362820;146;863860;-59
2021/11/23 07:20:00;;;;;;;11.54;5.89;;;;;;;;;;362874;147;855971;-57
2021/11/23 07:21:02;;;;;;;10.39;5.56;;;;;;;;;;362748;147;856551;-57
2021/11/23 07:22:04;;;;;;;12.17;6.44;;;;;;;;;;364859;146;863771;-58
2021/11/23 07:23:05;;;;;;;10.43;5.63;;;;;;;;;;361100;147;863725;-58
2021/11/23 07:24:07;;;;;;;14.98;6.11;;;;;;;;;;361810;147;856250;-58
2021/11/23 07:25:09;;;;;;;10.66;5.74;;;;;;;;;;363727;146;863975;-58
2021/11/23 07:26:12;;;;;;;9.93;5.91;;;;;;;;;;363246;146;864410;-58
2021/11/23 07:27:14;;;;;;;11.19;5.69;;;;;;;;;;360530;147;856129;-58
2021/11/23 07:28:15;;;;;;;11.19;5.77;;;;;;;;;;361842;147;863677;-58
2021/11/23 07:29:17;;;;;;;15.21;7.31;;;;;;;;;;364428;146;863874;-59
2021/11/23 07:30:19;;;;;;;12.44;5.82;;;;;;;;;;362591;147;864023;-56
2021/11/23 07:31:21;;;;;;;10.46;6.27;;;;;;;;;;365476;146;856565;-57
2021/11/23 07:32:22;;;;;;;15.00;6.59;;;;;;;;;;363389;147;857023;-57
2021/11/23 07:33:24;;;;;;;13.09;6.66;;;;;;;;;;363671;146;863975;-59
2021/11/23 07:34:26;;;;;;;13.02;6.09;;;;;;;;;;360713;147;863966;-58
2021/11/23 07:35:27;;;;;;;12.28;5.83;;;;;;;;;;362298;147;864512;-57
2021/11/23 07:36:29;;;;;;;12.83;6.49;;;;;;;;;;357832;148;864053;-58
2021/11/23 07:37:36;;;;;;;13.91;7.28;;;;;;;;;;363368;146;856722;-57
2021/11/23 07:38:35;;;;;;;13.60;6.25;;;;;;;;;;364504;147;864342;-59
2021/11/23 07:39:36;;;;;;;12.91;6.36;;;;;;;;;;363307;146;863776;-57
2021/11/23 07:40:38;;;;;;;13.10;6.51;;;;;;;;;;361614;146;864484;-57
2021/11/23 07:41:40;;;;;;;15.93;6.80;;;;;;;;;;359991;147;856465;-57
2021/11/23 07:42:42;;;;;;;15.61;7.04;;;;;;;;;;363773;147;856524;-58
2021/11/23 07:43:43;;;;;;;12.97;6.64;;;;;;;;;;364707;146;864370;-58
2021/11/23 07:44:45;;;;;;;15.19;6.65;;;;;;;;;;362498;146;863822;-59
2021/11/23 07:45:47;;;;;;;12.44;6.95;;;;;;;;;;362902;147;863723;-58
2021/11/23 07:46:49;;;;;;;17.60;7.31;;;;;;;;;;363264;147;864014;-57
2021/11/23 07:47:51;;;;;;;13.55;7.56;;;;;;;;;;363327;146;864466;-57
2021/11/23 07:48:53;;;;;;;14.68;6.92;;;;;;;;;;362195;147;856794;-59
2021/11/23 07:49:55;;;;;;;15.43;7.26;;;;;;;;;;362982;147;856167;-59
2021/11/23 07:50:57;;;;;;;12.11;6.61;;;;;;;;;;365144;146;856696;-58
2021/11/23 07:51:58;;;;;;;15.41;8.29;;;;;;;;;;361810;146;864085;-58
2021/11/23 07:53:00;;;;;;;14.94;7.53;;;;;;;;;;363156;147;856002;-57
2021/11/23 07:54:02;;;;;;;17.47;8.08;;;;;;;;;;362077;147;864535;-58
2021/11/23 07:55:04;;;;;;;14.89;7.75;;;;;;;;;;364344;146;857365;-58
2021/11/23 07:56:06;;;;;;;15.49;7.91;;;;;;;;;;363418;145;856064;-58
2021/11/23 07:57:07;;;;;;;15.50;8.08;;;;;;;;;;366107;145;856542;-56
2021/11/23 07:58:09;;;;;;;16.91;8.06;;;;;;;;;;364432;146;863931;-58
2021/11/23 07:59:12;;;;;;;16.91;8.15;;;;;;;;;;365371;146;863969;-59
2021/11/23 08:00:14;;;;;;;18.34;8.94;;;;;;;;;;362926;147;863739;-59
2021/11/23 08:01:16;;;;;;;19.29;8.82;;;;;;;;;;363774;147;856111;-58
2021/11/23 08:02:17;;;;;;;19.16;9.58;;;;;;;;;;363748;146;856450;-58
2021/11/23 08:03:19;;;;;;;20.75;9.61;;;;;;;;;;363166;147;863901;-60
2021/11/23 08:04:21;;;;;;;27.87;11.08;;;;;;;;;;359859;147;863977;-58
2021/11/23 08:05:22;;;;;;;24.84;10.82;;;;;;;;;;364988;146;864278;-58
2021/11/23 08:06:25;;;;;;;25.29;11.11;;;;;;;;;;363953;146;863722;-59
2021/11/23 08:07:28;;;;;;;25.66;11.23;;;;;;;;;;363904;145;856945;-59
2021/11/23 08:08:30;;;;;;;27.19;11.60;;;;;;;;;;364132;145;864300;-59
2021/11/23 08:09:31;;;;;;;28.64;10.79;;;;;;;;;;363691;145;856914;-59
2021/11/23 08:10:33;;;;;;;25.67;11.50;;;;;;;;;;361256;147;863785;-58
2021/11/23 08:11:34;;;;;;;25.49;12.29;;;;;;;;;;363027;147;863941;-59
2021/11/23 08:12:36;;;;;;;26.11;12.03;;;;;;;;;;362323;146;863589;-59
2021/11/23 08:13:38;;;;;;;25.41;10.59;;;;;;;;;;361913;146;863697;-59
2021/11/23 08:14:39;;;;;;;20.84;9.86;;;;;;;;;;363209;147;863533;-58
2021/11/23 08:15:41;;;;;;;22.87;9.88;;;;;;;;;;364478;145;864337;-59
2021/11/23 08:16:43;;;;;;;23.95;10.35;;;;;;;;;;362596;146;863659;-59
2021/11/23 08:17:46;;;;;;;24.09;10.06;;;;;;;;;;364353;146;856181;-58
2021/11/23 08:18:48;;;;;;;21.74;11.06;;;;;;;;;;363101;147;863674;-59
2021/11/23 08:19:49;;;;;;;23.47;9.99;;;;;;;;;;362363;147;857040;-59
2021/11/23 08:20:52;;;;;;;19.04;10.24;;;;;;;;;;362758;146;863672;-57
2021/11/23 08:21:54;;;;;;;19.69;10.62;;;;;;;;;;363502;147;864087;-58
2021/11/23 08:22:55;;;;;;;21.45;11.36;;;;;;;;;;361253;146;863689;-59
2021/11/23 08:23:57;;;;;;;24.77;10.95;;;;;;;;;;363831;146;863741;-57
2021/11/23 08:24:59;;;;;;;20.09;9.90;;;;;;;;;;363535;146;863557;-59
2021/11/23 08:26:00;;;;;;;14.79;8.19;;;;;;;;;;361330;147;863446;-58
2021/11/23 08:27:02;;;;;;;18.34;8.56;;;;;;;;;;364468;147;863868;-58
2021/11/23 08:28:04;;;;;;;19.83;9.89;;;;;;;;;;364060;146;863765;-58
2021/11/23 08:29:05;;;;;;;22.73;9.41;;;;;;;;;;361942;147;864396;-58
2021/11/23 08:30:08;;;;;;;19.45;9.31;;;;;;;;;;360863;147;856413;-58
2021/11/23 08:31:10;;;;;;;18.41;9.45;;;;;;;;;;364335;147;856012;-58
2021/11/23 08:32:12;;;;;;;20.38;8.25;;;;;;;;;;361869;146;856712;-58
2021/11/23 08:33:13;;;;;;;17.92;8.87;;;;;;;;;;360289;147;856032;-58
2021/11/23 08:34:15;;;;;;;13.98;7.43;;;;;;;;;;363325;147;863814;-58
2021/11/23 08:35:17;;;;;;;16.13;7.41;;;;;;;;;;364645;146;856372;-58
2021/11/23 08:36:19;;;;;;;14.61;7.23;;;;;;;;;;365640;147;856229;-57
2021/11/23 08:37:21;;;;;;;11.93;6.84;;;;;;;;;;365227;147;856374;-58
2021/11/23 08:38:22;;;;;;;15.26;6.58;;;;;;;;;;365070;146;864012;-58
2021/11/23 08:39:24;;;;;;;15.63;7.56;;;;;;;;;;360532;146;864017;-58
2021/11/23 08:40:25;;;;;;;13.47;7.03;;;;;;;;;;364360;147;863950;-59
2021/11/23 08:41:28;;;;;;;14.35;7.22;;;;;;;;;;363727;147;864527;-59
2021/11/23 08:42:29;;;;;;;15.29;7.10;;;;;;;;;;364083;146;858530;-58
2021/11/23 08:43:31;;;;;;;14.59;6.75;;;;;;;;;;364344;147;864039;-58
2021/11/23 08:44:33;;;;;;;16.54;7.89;;;;;;;;;;365811;147;857384;-59
2021/11/23 08:45:35;;;;;;;17.51;7.74;;;;;;;;;;364324;146;856237;-58
2021/11/23 08:46:36;;;;;;;16.74;7.81;;;;;;;;;;364014;146;864310;-59
2021/11/23 08:47:38;;;;;;;18.21;9.05;;;;;;;;;;364174;147;863967;-59